Flight Track Log - Related Links

Times and Time Zones

All times are in EDT time to prevent confusion due to time zone crossing. See the LXJ549 flight status page for this flight to view local times or setup timezone preferences in your user account.

Time Position Orientation Groundspeed Altitude Reporting Facility
EDT Latitude Longitude Course Direction KTS MPH feet Rate Location/Type
Mon 08:35:08 AM 35.8561 -78.8083 247° West 172 198 1,500  Level Washington Center
Mon 08:36:21 AM 35.8314 -78.8789 247° West 240 276 4,000 1,683 Climbing Washington Center
Mon 08:37:27 AM 35.8308 -78.9764 270° West 273 314 5,400 2,113 Climbing Washington Center
Mon 08:38:43 AM 35.8358 -79.0919 273° West 277 319 9,000 2,986 Climbing Washington Center
Mon 08:41:04 AM 35.8328 -79.3386 269° West 309 356 16,200 2,897 Climbing Atlanta Center
Mon 08:43:04 AM 35.8122 -79.5728 264° West 346 398 21,600 2,367 Climbing Atlanta Center
Mon 08:44:04 AM 35.7892 -79.6842 256° West 351 404 23,300 1,600 Climbing Atlanta Center
Mon 08:45:04 AM 35.7703 -79.8056 259° West 351 404 24,800 1,450 Climbing Atlanta Center
Mon 08:46:04 AM 35.7456 -79.9372 257° West 378 435 26,200 1,450 Climbing Atlanta Center
Mon 08:47:04 AM 35.7228 -80.0639 258° West 404 465 27,700 1,500 Climbing Atlanta Center
Mon 08:48:04 AM 35.7000 -80.2056 259° West 418 481 29,200 1,150 Climbing Atlanta Center
Mon 08:49:04 AM 35.6717 -80.3706 258° West 440 506 30,000 400 Climbing Atlanta Center
Mon 08:50:04 AM 35.6464 -80.4967 256° West 440 506 30,000  Level Atlanta Center
Mon 08:51:04 AM 35.6019 -80.6289 248° West 427 491 30,000  Level Atlanta Center
Mon 08:52:04 AM 35.5578 -80.7636 248° West 421 484 30,000  Level Atlanta Center
Mon 08:53:04 AM 35.5153 -80.8953 248° West 421 484 30,000  Level Atlanta Center
Mon 08:54:04 AM 35.4686 -81.0272 247° West 421 484 30,000  Level Atlanta Center
Mon 08:55:04 AM 35.4200 -81.1767 248° West 421 484 30,000  Level Atlanta Center
Mon 08:56:04 AM 35.3750 -81.3133 248° West 426 490 30,000  Level Atlanta Center
Mon 08:57:04 AM 35.3322 -81.4497 249° West 431 496 30,000  Level Atlanta Center
Mon 08:58:04 AM 35.2889 -81.5833 248° West 431 496 30,000  Level Atlanta Center
Mon 08:59:04 AM 35.2417 -81.7219 247° West 437 503 30,000  Level Atlanta Center
Mon 09:00:04 AM 35.2019 -81.8428 248° West 437 503 30,000  Level Atlanta Center
Mon 09:01:04 AM 35.1564 -81.9786 248° West 437 503 30,000  Level Atlanta Center
Mon 09:02:04 AM 35.1106 -82.1117 247° West 437 503 30,000 -600 Level Atlanta Center
Mon 09:03:04 AM 35.0647 -82.2447 247° West 437 503 28,800 -1,350 Descending Atlanta Center
Mon 09:04:04 AM 35.0144 -82.3828 246° West 425 489 27,300 -1,500 Descending Atlanta Center
Mon 09:05:04 AM 34.9742 -82.5028 248° West 419 482 25,800 -1,800 Descending Atlanta Center
Mon 09:06:04 AM 34.9297 -82.6303 247° West 419 482 23,700 -2,100 Descending Atlanta Center
Mon 09:07:04 AM 34.8853 -82.7525 246° West 419 482 21,600 -2,100 Descending Atlanta Center
Mon 09:08:04 AM 34.8447 -82.8797 249° West 413 475 19,500 -2,050 Descending Atlanta Center
Mon 09:09:04 AM 34.8019 -82.9942 246° West 394 453 17,500 -2,050 Descending Atlanta Center
Mon 09:10:04 AM 34.7611 -83.1108 247° West 378 435 15,400 -1,250 Descending Atlanta Center
Mon 09:11:04 AM 34.7203 -83.2175 245° Southwest 367 422 15,000 -200 Descending Atlanta Center
Mon 09:12:04 AM 34.6728 -83.3189 240° Southwest 356 410 15,000  Level Atlanta Center
Mon 09:13:04 AM 34.6256 -83.4203 241° Southwest 350 403 15,000  Level Atlanta Center
Mon 09:14:04 AM 34.5739 -83.5292 240° Southwest 361 415 15,000  Level Atlanta Center
Mon 09:15:04 AM 34.5242 -83.6378 241° Southwest 366 421 15,000 -550 Level Atlanta Center
Mon 09:16:04 AM 34.4681 -83.7567 240° Southwest 372 428 13,900 -1,550 Descending Atlanta Center
Mon 09:17:04 AM 34.4161 -83.8650 240° Southwest 377 434 11,900 -1,950 Descending Atlanta Center
Mon 09:18:04 AM 34.3681 -83.9633 239° Southwest 377 434 10,000 -1,650 Descending Atlanta Center
Mon 09:19:04 AM 34.3306 -84.0464 241° Southwest 318 366 8,600 -950 Descending Atlanta Center
Mon 09:20:04 AM 34.2722 -84.0967 215° Southwest 255 293 8,100 -1,200 Descending Atlanta Center
Mon 09:21:04 AM 34.2033 -84.1342 204° Southwest 266 306 6,200 -2,050 Descending Atlanta Center
Mon 09:22:04 AM 34.1386 -84.1769 209° Southwest 266 306 4,000 -1,958 Descending Atlanta Center
Mon 09:22:39 AM 34.1000 -84.2000 206° Southwest 254 292 3,100 -632 Descending Atlanta TRACON
Mon 09:23:39 AM 34.0500 -84.2167 195° South 207 238 3,000 -50 Descending Atlanta TRACON
Mon 09:24:39 AM 34.0000 -84.2500 209° Southwest 199 229 3,000 -316 Level Atlanta TRACON
Mon 09:25:33 AM 33.9500 -84.2667 195° South 191 220 2,400 -684 Descending Atlanta TRACON
Mon 09:26:33 AM 33.9167 -84.2833 203° Southwest 106 122 1,700 -700 Descending Atlanta TRACON
Mon 09:28:00 AM 33.8756 -84.3020 209° Southwest  Level Estimated
Mon 09:35:00 AM 33.8756 -84.3020 209° Southwest  Level Estimated

Login

Don't have an account? Register now (free) for customized features, flight alerts, and more!